Time;durP1;ratioP1;P1;durP2;ratioP2;P2;SDS_P1;SDS_P2;PMS_P1;PMS_P2;Temp;Humidity;BMP_temperature;BMP_pressure;BME280_temperature;BME280_humidity;BME280_pressure;Samples;Min_cycle;Max_cycle;Signal;HPM_P1;HPM_P2
2023/04/25 00:02:20;;;;;;;3.58;1.20;;;;;;;;;;5061922;28;20372;-87
2023/04/25 00:04:46;;;;;;;1.98;1.10;;;;;;;;;;5061823;28;20119;-86
2023/04/25 00:07:12;;;;;;;2.60;1.20;;;;;;;;;;5068169;28;20518;-87
2023/04/25 00:09:37;;;;;;;2.58;1.40;;;;;;;;;;5065288;28;20037;-85
2023/04/25 00:12:03;;;;;;;2.83;1.30;;;;;;;;;;5071881;28;20044;-86
2023/04/25 00:14:30;;;;;;;2.85;1.27;;;;;;;;;;5073994;28;20028;-84
2023/04/25 00:16:55;;;;;;;1.85;1.40;;;;;;;;;;5072385;28;20449;-87
2023/04/25 00:19:21;;;;;;;2.30;1.10;;;;;;;;;;5062354;28;20040;-85
2023/04/25 00:21:47;;;;;;;1.83;1.20;;;;;;;;;;5065716;28;20052;-85
2023/04/25 00:24:12;;;;;;;1.90;1.30;;;;;;;;;;5066434;28;20041;-84
2023/04/25 00:26:38;;;;;;;3.30;1.23;;;;;;;;;;5068338;28;20029;-85
2023/04/25 00:29:03;;;;;;;1.83;1.20;;;;;;;;;;5068361;28;20115;-84
2023/04/25 00:31:30;;;;;;;1.90;1.20;;;;;;;;;;5070448;28;20562;-85
2023/04/25 00:33:55;;;;;;;4.15;1.42;;;;;;;;;;5060162;28;20383;-86
2023/04/25 00:36:21;;;;;;;1.90;1.13;;;;;;;;;;5055325;28;20059;-84
2023/04/25 00:38:47;;;;;;;2.33;1.30;;;;;;;;;;5050191;28;20051;-85
2023/04/25 00:41:12;;;;;;;1.55;0.95;;;;;;;;;;5061756;28;20055;-85
2023/04/25 00:43:39;;;;;;;1.92;1.30;;;;;;;;;;5046704;28;20027;-85
2023/04/25 00:46:05;;;;;;;1.65;1.20;;;;;;;;;;5049880;28;20028;-87
2023/04/25 00:48:31;;;;;;;2.65;1.20;;;;;;;;;;5069451;28;20456;-85
2023/04/25 00:50:59;;;;;;;1.85;1.13;;;;;;;;;;5053748;28;20030;-86
2023/04/25 00:53:27;;;;;;;1.92;1.10;;;;;;;;;;5055773;28;20040;-86
2023/04/25 00:55:53;;;;;;;2.75;1.20;;;;;;;;;;5057531;28;20072;-86
2023/04/25 00:58:20;;;;;;;2.40;1.30;;;;;;;;;;5065567;28;20029;-88
2023/04/25 01:00:47;;;;;;;1.88;1.30;;;;;;;;;;5049847;28;20040;-86
2023/04/25 01:03:16;;;;;;;3.17;1.20;;;;;;;;;;5069704;28;20029;-86
2023/04/25 01:05:41;;;;;;;1.50;1.10;;;;;;;;;;5070663;28;20493;-86
2023/04/25 01:08:07;;;;;;;2.42;1.20;;;;;;;;;;5052603;28;20041;-86
2023/04/25 01:10:32;;;;;;;1.20;1.10;;;;;;;;;;5063871;28;20040;-84
2023/04/25 01:12:58;;;;;;;1.85;1.17;;;;;;;;;;5063836;28;20033;-85
2023/04/25 01:15:24;;;;;;;2.45;1.20;;;;;;;;;;5068776;28;20032;-83
2023/04/25 01:17:50;;;;;;;1.92;1.10;;;;;;;;;;5072573;28;20033;-86
2023/04/25 01:20:16;;;;;;;5.07;2.03;;;;;;;;;;5076118;28;20071;-86
2023/04/25 01:22:42;;;;;;;1.80;1.20;;;;;;;;;;5072212;28;20029;-86
2023/04/25 01:25:09;;;;;;;1.50;1.20;;;;;;;;;;5062862;28;20044;-86
2023/04/25 01:27:36;;;;;;;2.90;1.23;;;;;;;;;;5059658;28;20128;-85
2023/04/25 01:30:03;;;;;;;1.30;1.20;;;;;;;;;;5063062;28;20032;-85
2023/04/25 01:32:37;;;;;;;1.83;1.13;;;;;;;;;;5046747;28;20036;-85
2023/04/25 01:35:08;;;;;;;2.20;1.30;;;;;;;;;;5070405;28;20060;-86
2023/04/25 01:37:36;;;;;;;4.78;1.20;;;;;;;;;;5067863;28;20041;-85
2023/04/25 01:40:01;;;;;;;2.00;1.45;;;;;;;;;;5060510;28;20410;-84
2023/04/25 01:42:27;;;;;;;3.33;1.48;;;;;;;;;;5061219;28;20033;-86
2023/04/25 01:44:53;;;;;;;1.70;1.20;;;;;;;;;;5060196;28;20049;-84
2023/04/25 01:47:18;;;;;;;1.95;1.30;;;;;;;;;;5046808;28;20486;-86
2023/04/25 01:49:44;;;;;;;1.65;1.27;;;;;;;;;;5056448;28;20060;-84
2023/04/25 01:52:10;;;;;;;4.43;1.50;;;;;;;;;;5050076;28;20051;-85
2023/04/25 01:54:35;;;;;;;2.65;1.20;;;;;;;;;;5055665;28;20032;-86
2023/04/25 01:57:02;;;;;;;2.70;1.30;;;;;;;;;;5054101;28;20033;-85
2023/04/25 01:59:28;;;;;;;1.85;1.38;;;;;;;;;;5058523;28;20037;-85
2023/04/25 02:02:06;;;;;;;1.83;1.40;;;;;;;;;;5062259;28;20056;-86
2023/04/25 02:04:33;;;;;;;1.70;1.30;;;;;;;;;;5064128;28;20076;-85
2023/04/25 02:06:59;;;;;;;5.43;1.60;;;;;;;;;;5067139;28;20055;-85
2023/04/25 02:09:34;;;;;;;3.92;1.50;;;;;;;;;;5068004;28;20028;-85
2023/04/25 02:12:04;;;;;;;2.40;1.35;;;;;;;;;;5062371;28;20502;-87
2023/04/25 02:14:41;;;;;;;2.08;1.20;;;;;;;;;;5055722;28;20170;-87
2023/04/25 02:17:31;;;;;;;3.55;1.30;;;;;;;;;;5054509;28;20044;-86
2023/04/25 02:19:57;;;;;;;1.75;1.30;;;;;;;;;;5046283;28;20041;-87
2023/04/25 02:22:22;;;;;;;2.33;1.40;;;;;;;;;;5064369;28;20040;-85
2023/04/25 02:24:48;;;;;;;2.03;1.42;;;;;;;;;;5081384;28;20040;-86
2023/04/25 02:27:13;;;;;;;4.25;1.60;;;;;;;;;;5078114;28;20094;-86
2023/04/25 02:29:39;;;;;;;2.72;1.20;;;;;;;;;;5057176;28;20048;-87
2023/04/25 02:32:05;;;;;;;2.03;1.30;;;;;;;;;;5059640;28;20120;-84
2023/04/25 02:34:30;;;;;;;2.15;1.30;;;;;;;;;;5059534;28;20033;-85
2023/04/25 02:36:58;;;;;;;1.92;1.20;;;;;;;;;;5061447;28;20086;-85
2023/04/25 02:39:25;;;;;;;4.40;1.45;;;;;;;;;;5083678;28;20044;-86
2023/04/25 02:41:51;;;;;;;2.13;1.30;;;;;;;;;;5070483;28;20067;-85
2023/04/25 02:44:16;;;;;;;1.88;1.30;;;;;;;;;;5071661;28;20037;-87
2023/04/25 02:46:44;;;;;;;2.65;1.50;;;;;;;;;;5058303;28;20119;-86
2023/04/25 02:49:09;;;;;;;2.88;1.42;;;;;;;;;;5061495;28;20037;-85
2023/04/25 02:51:35;;;;;;;3.83;1.42;;;;;;;;;;5061899;28;20498;-87
2023/04/25 02:54:00;;;;;;;1.73;1.27;;;;;;;;;;5066788;28;20076;-84
2023/04/25 02:56:26;;;;;;;3.80;1.60;;;;;;;;;;5068875;28;20040;-86
2023/04/25 02:58:52;;;;;;;2.17;1.38;;;;;;;;;;5071492;28;20064;-85
2023/04/25 03:01:18;;;;;;;2.28;1.40;;;;;;;;;;5044092;28;20036;-85
2023/04/25 03:03:43;;;;;;;3.50;1.40;;;;;;;;;;5057940;28;20409;-87
2023/04/25 03:06:09;;;;;;;6.13;1.40;;;;;;;;;;5062219;28;20040;-87
2023/04/25 03:08:36;;;;;;;1.52;1.30;;;;;;;;;;5063669;28;20036;-87
2023/04/25 03:11:01;;;;;;;2.55;1.25;;;;;;;;;;5067658;28;20097;-86
2023/04/25 03:13:29;;;;;;;2.30;1.13;;;;;;;;;;5048716;28;20482;-85
2023/04/25 03:15:55;;;;;;;2.17;1.30;;;;;;;;;;5069100;28;20028;-85
2023/04/25 03:18:20;;;;;;;2.25;1.27;;;;;;;;;;5057398;28;20115;-85
2023/04/25 03:20:46;;;;;;;2.00;1.30;;;;;;;;;;5059624;28;20032;-86
2023/04/25 03:23:12;;;;;;;6.78;3.42;;;;;;;;;;5059451;28;20537;-85
2023/04/25 03:25:40;;;;;;;5.35;2.65;;;;;;;;;;5061115;28;20033;-84
2023/04/25 03:28:06;;;;;;;2.42;1.40;;;;;;;;;;5082982;28;20082;-87
2023/04/25 03:30:31;;;;;;;4.22;1.23;;;;;;;;;;5072519;28;20131;-84
2023/04/25 03:32:57;;;;;;;2.33;1.25;;;;;;;;;;5065093;28;20494;-85
2023/04/25 03:35:23;;;;;;;2.22;1.35;;;;;;;;;;5054349;28;20131;-86
2023/04/25 03:37:49;;;;;;;2.42;1.40;;;;;;;;;;5039655;28;20029;-84
2023/04/25 03:40:20;;;;;;;4.18;1.20;;;;;;;;;;5060659;28;20045;-86
2023/04/25 03:43:04;;;;;;;2.00;1.50;;;;;;;;;;5068034;28;20041;-86
2023/04/25 03:45:30;;;;;;;2.75;1.48;;;;;;;;;;5066404;28;20125;-85
2023/04/25 03:47:55;;;;;;;4.03;1.95;;;;;;;;;;5070515;28;20021;-87
2023/04/25 03:50:21;;;;;;;3.50;1.80;;;;;;;;;;5062403;28;20576;-85
2023/04/25 03:52:46;;;;;;;2.63;1.38;;;;;;;;;;5055910;28;20131;-85
2023/04/25 03:55:13;;;;;;;3.65;1.40;;;;;;;;;;5056837;28;20041;-85
2023/04/25 03:57:39;;;;;;;4.55;1.50;;;;;;;;;;5064115;28;20093;-85
2023/04/25 04:00:06;;;;;;;2.03;1.35;;;;;;;;;;5047717;28;20032;-86
2023/04/25 04:02:38;;;;;;;4.32;1.50;;;;;;;;;;5069142;28;20540;-85
2023/04/25 04:05:05;;;;;;;4.50;1.83;;;;;;;;;;5061543;28;20040;-86
2023/04/25 04:07:33;;;;;;;3.30;1.50;;;;;;;;;;5068157;28;20033;-87
2023/04/25 04:09:59;;;;;;;3.55;1.48;;;;;;;;;;5060379;28;20036;-87
2023/04/25 04:12:32;;;;;;;3.88;1.77;;;;;;;;;;5062060;28;20041;-87
2023/04/25 04:14:57;;;;;;;6.63;2.90;;;;;;;;;;5061324;28;20038;-85
2023/04/25 04:17:23;;;;;;;3.08;1.75;;;;;;;;;;5067272;28;20052;-86
2023/04/25 04:19:50;;;;;;;2.25;1.33;;;;;;;;;;5067108;28;20063;-86
2023/04/25 04:22:18;;;;;;;2.67;1.55;;;;;;;;;;5073750;28;20040;-86
2023/04/25 04:24:46;;;;;;;2.85;1.50;;;;;;;;;;5041190;28;20057;-85
2023/04/25 04:27:14;;;;;;;1.85;1.58;;;;;;;;;;5061621;28;20030;-86
2023/04/25 04:29:47;;;;;;;4.32;1.40;;;;;;;;;;5068597;28;20028;-85
2023/04/25 04:32:23;;;;;;;9.70;4.85;;;;;;;;;;5087743;28;20044;-85
2023/04/25 04:34:54;;;;;;;3.00;1.70;;;;;;;;;;5055774;28;20402;-85
2023/04/25 04:37:21;;;;;;;5.20;3.00;;;;;;;;;;5075210;28;20978;-84
2023/04/25 04:39:47;;;;;;;2.40;1.70;;;;;;;;;;5046050;28;20029;-86
2023/04/25 04:42:24;;;;;;;2.75;1.65;;;;;;;;;;5058667;28;20028;-85
2023/04/25 04:45:05;;;;;;;2.75;1.70;;;;;;;;;;5054274;28;20041;-86
2023/04/25 04:47:46;;;;;;;3.13;1.60;;;;;;;;;;5064142;28;20040;-86
2023/04/25 04:50:33;;;;;;;2.88;1.45;;;;;;;;;;5056712;28;20123;-88
2023/04/25 04:53:19;;;;;;;3.05;1.58;;;;;;;;;;5072835;28;20421;-85
2023/04/25 04:56:05;;;;;;;3.22;1.60;;;;;;;;;;5031395;28;20274;-87
2023/04/25 04:58:50;;;;;;;5.65;2.22;;;;;;;;;;5087437;28;20033;-85
2023/04/25 05:01:30;;;;;;;3.85;2.00;;;;;;;;;;5065274;28;20033;-85
2023/04/25 05:04:12;;;;;;;2.40;1.60;;;;;;;;;;5069495;28;20033;-87
2023/04/25 05:06:57;;;;;;;3.28;1.73;;;;;;;;;;5074767;28;20409;-86
2023/04/25 05:09:46;;;;;;;3.42;1.80;;;;;;;;;;5059127;28;20410;-87
2023/04/25 05:12:30;;;;;;;2.83;1.80;;;;;;;;;;5061498;28;20064;-84
2023/04/25 05:15:11;;;;;;;4.38;1.80;;;;;;;;;;5063995;28;20033;-85
2023/04/25 05:18:03;;;;;;;3.97;1.90;;;;;;;;;;5057298;28;20058;-87
2023/04/25 05:20:49;;;;;;;3.20;1.75;;;;;;;;;;5043465;28;20697;-85
2023/04/25 05:23:27;;;;;;;2.50;1.90;;;;;;;;;;5079003;28;20113;-85
2023/04/25 05:26:03;;;;;;;2.22;1.67;;;;;;;;;;5078634;28;20036;-85
2023/04/25 05:28:50;;;;;;;2.53;1.73;;;;;;;;;;5077675;28;20045;-86
2023/04/25 05:31:39;;;;;;;9.00;2.00;;;;;;;;;;5065207;28;20044;-86
2023/04/25 05:34:10;;;;;;;3.13;1.70;;;;;;;;;;5070297;28;20040;-85
2023/04/25 05:36:43;;;;;;;1.92;1.40;;;;;;;;;;5067006;28;20517;-86
2023/04/25 05:39:10;;;;;;;2.70;1.50;;;;;;;;;;5071927;28;20039;-84
2023/04/25 05:41:54;;;;;;;4.25;1.67;;;;;;;;;;5076047;28;20064;-85
2023/04/25 05:44:42;;;;;;;5.00;1.73;;;;;;;;;;5059965;28;20036;-85
2023/04/25 05:47:22;;;;;;;2.80;1.60;;;;;;;;;;5056739;28;20032;-85
2023/04/25 05:50:08;;;;;;;3.25;1.73;;;;;;;;;;5044655;28;20025;-86
2023/04/25 05:52:47;;;;;;;5.15;1.83;;;;;;;;;;5057107;28;20039;-87
2023/04/25 05:55:23;;;;;;;4.00;2.10;;;;;;;;;;5065400;28;20122;-86
2023/04/25 05:57:49;;;;;;;3.65;1.98;;;;;;;;;;5068754;28;20056;-87
2023/04/25 06:00:16;;;;;;;3.75;1.90;;;;;;;;;;5071584;28;20059;-86
2023/04/25 06:02:44;;;;;;;2.88;1.70;;;;;;;;;;5055524;28;20035;-87
2023/04/25 06:05:12;;;;;;;3.85;1.90;;;;;;;;;;5075437;28;20029;-85
2023/04/25 06:07:37;;;;;;;3.63;1.88;;;;;;;;;;5060318;28;20090;-86
2023/04/25 06:10:06;;;;;;;3.28;1.88;;;;;;;;;;5062036;28;20032;-87
2023/04/25 06:12:33;;;;;;;3.72;2.00;;;;;;;;;;5066863;28;20110;-85
2023/04/25 06:14:59;;;;;;;2.75;1.70;;;;;;;;;;5083571;28;20036;-85
2023/04/25 06:17:24;;;;;;;4.20;1.80;;;;;;;;;;5069702;28;20059;-85
2023/04/25 06:19:51;;;;;;;4.53;2.20;;;;;;;;;;5060612;28;20490;-85
2023/04/25 06:22:16;;;;;;;3.38;1.90;;;;;;;;;;5043109;28;20072;-86
2023/04/25 06:24:42;;;;;;;3.10;1.90;;;;;;;;;;5046276;28;20052;-87
2023/04/25 06:27:07;;;;;;;2.67;1.67;;;;;;;;;;5050095;28;20399;-86
2023/04/25 06:29:33;;;;;;;3.10;1.70;;;;;;;;;;5036258;28;20056;-86
2023/04/25 06:31:59;;;;;;;3.95;1.75;;;;;;;;;;5054481;28;20557;-85
2023/04/25 06:34:24;;;;;;;4.70;2.00;;;;;;;;;;5049674;28;20030;-88
2023/04/25 06:36:50;;;;;;;3.20;1.88;;;;;;;;;;5060179;28;20509;-86
2023/04/25 06:39:16;;;;;;;5.70;2.33;;;;;;;;;;5062229;28;20919;-85
2023/04/25 06:41:41;;;;;;;3.15;1.85;;;;;;;;;;5065255;28;20091;-87
2023/04/25 06:44:15;;;;;;;2.60;1.87;;;;;;;;;;5051637;28;20033;-86
2023/04/25 06:46:50;;;;;;;4.50;2.10;;;;;;;;;;5087968;28;20039;-85
2023/04/25 06:49:15;;;;;;;7.00;1.70;;;;;;;;;;5075905;28;20040;-85
2023/04/25 06:51:41;;;;;;;4.43;1.55;;;;;;;;;;5062529;28;20040;-86
2023/04/25 06:54:07;;;;;;;3.83;1.70;;;;;;;;;;5065167;28;20041;-86
2023/04/25 06:56:51;;;;;;;3.05;1.67;;;;;;;;;;5068705;28;20032;-86
2023/04/25 06:59:17;;;;;;;3.50;1.70;;;;;;;;;;5071006;28;20460;-86
2023/04/25 07:01:45;;;;;;;3.50;1.80;;;;;;;;;;5053354;28;20028;-88
2023/04/25 07:04:15;;;;;;;7.22;4.13;;;;;;;;;;5069718;28;20119;-85
2023/04/25 07:06:47;;;;;;;3.85;1.73;;;;;;;;;;5054399;28;20036;-85
2023/04/25 07:09:15;;;;;;;4.55;1.90;;;;;;;;;;5054728;28;20036;-85
2023/04/25 07:11:44;;;;;;;3.80;1.85;;;;;;;;;;5059905;28;20036;-84
2023/04/25 07:14:10;;;;;;;2.95;1.70;;;;;;;;;;5062165;28;20033;-86
2023/04/25 07:16:35;;;;;;;3.83;1.85;;;;;;;;;;5059902;28;20076;-86
2023/04/25 07:19:01;;;;;;;5.85;1.70;;;;;;;;;;5036953;28;20082;-86
2023/04/25 07:21:27;;;;;;;3.90;1.88;;;;;;;;;;5046037;28;20060;-86
2023/04/25 07:23:53;;;;;;;3.72;1.60;;;;;;;;;;5041696;28;20078;-87
2023/04/25 07:26:24;;;;;;;3.22;1.73;;;;;;;;;;5054609;28;20035;-86
2023/04/25 07:29:10;;;;;;;5.25;1.75;;;;;;;;;;5046082;28;20045;-88
2023/04/25 07:31:35;;;;;;;2.97;1.80;;;;;;;;;;5055284;28;20692;-86
2023/04/25 07:34:01;;;;;;;3.55;1.83;;;;;;;;;;5042233;28;20043;-87
2023/04/25 07:36:27;;;;;;;3.75;1.90;;;;;;;;;;5033466;28;20037;-85
2023/04/25 07:38:52;;;;;;;3.78;1.67;;;;;;;;;;5062681;28;20677;-85
2023/04/25 07:41:18;;;;;;;2.63;1.50;;;;;;;;;;5036421;28;20068;-86
2023/04/25 07:43:43;;;;;;;2.47;1.70;;;;;;;;;;5060678;28;20041;-86
2023/04/25 07:46:11;;;;;;;5.80;1.70;;;;;;;;;;5036104;28;20060;-85
2023/04/25 07:48:37;;;;;;;6.10;1.90;;;;;;;;;;5051044;28;20040;-84
2023/04/25 07:51:05;;;;;;;3.50;1.85;;;;;;;;;;5060258;28;20029;-86
2023/04/25 07:53:31;;;;;;;5.10;1.80;;;;;;;;;;5047948;28;20033;-88
2023/04/25 07:56:02;;;;;;;6.53;2.45;;;;;;;;;;5069709;28;20037;-86
2023/04/25 07:58:31;;;;;;;4.22;1.65;;;;;;;;;;5059311;28;20028;-86
2023/04/25 08:01:00;;;;;;;3.55;1.67;;;;;;;;;;5067138;28;20041;-86
2023/04/25 08:03:42;;;;;;;6.55;1.70;;;;;;;;;;5060302;28;20516;-88
2023/04/25 08:06:14;;;;;;;3.08;1.60;;;;;;;;;;5062673;28;20077;-86
2023/04/25 08:08:48;;;;;;;4.25;1.80;;;;;;;;;;5080244;28;20098;-86
2023/04/25 08:11:17;;;;;;;5.57;1.80;;;;;;;;;;5066347;28;20040;-86
2023/04/25 08:13:43;;;;;;;4.40;1.70;;;;;;;;;;5054997;28;20029;-87
2023/04/25 08:16:08;;;;;;;3.83;1.52;;;;;;;;;;5059254;28;20033;-86
2023/04/25 08:18:34;;;;;;;5.68;1.90;;;;;;;;;;5064229;28;20037;-83
2023/04/25 08:21:00;;;;;;;4.43;1.50;;;;;;;;;;5053832;28;20038;-86
2023/04/25 08:23:25;;;;;;;3.75;1.52;;;;;;;;;;5061608;28;20837;-87
2023/04/25 08:26:02;;;;;;;4.53;1.88;;;;;;;;;;5067686;28;20741;-85
2023/04/25 08:28:29;;;;;;;3.38;1.60;;;;;;;;;;5058261;28;20449;-85
2023/04/25 08:30:59;;;;;;;3.83;1.60;;;;;;;;;;5051316;28;20570;-85
2023/04/25 08:33:32;;;;;;;3.13;1.70;;;;;;;;;;5057595;28;20047;-87
2023/04/25 08:36:04;;;;;;;3.47;1.50;;;;;;;;;;5048583;28;20060;-89
2023/04/25 08:38:31;;;;;;;5.00;1.88;;;;;;;;;;5054022;28;20041;-86
2023/04/25 08:40:59;;;;;;;5.00;1.58;;;;;;;;;;5038504;28;20030;-85
2023/04/25 08:43:25;;;;;;;3.42;2.10;;;;;;;;;;5040736;28;20435;-86
2023/04/25 08:45:53;;;;;;;4.10;1.90;;;;;;;;;;5060375;28;20052;-86
2023/04/25 08:48:39;;;;;;;4.80;1.70;;;;;;;;;;5046193;28;20055;-85
2023/04/25 08:51:08;;;;;;;4.25;2.10;;;;;;;;;;5070925;28;20037;-85
2023/04/25 08:53:34;;;;;;;3.60;1.83;;;;;;;;;;5060649;28;20041;-84
2023/04/25 08:56:02;;;;;;;7.68;2.13;;;;;;;;;;5056119;28;20033;-86
2023/04/25 08:58:32;;;;;;;2.63;1.70;;;;;;;;;;5054527;28;20053;-85
2023/04/25 09:00:57;;;;;;;4.18;1.70;;;;;;;;;;5054083;28;20032;-86
2023/04/25 09:03:26;;;;;;;6.55;2.10;;;;;;;;;;5045370;28;20039;-87
2023/04/25 09:05:52;;;;;;;3.22;1.90;;;;;;;;;;5059976;28;20103;-85
2023/04/25 09:08:18;;;;;;;5.13;1.52;;;;;;;;;;5058643;28;20051;-87
2023/04/25 09:10:43;;;;;;;6.85;1.85;;;;;;;;;;5059108;28;20033;-85
2023/04/25 09:13:14;;;;;;;2.90;1.80;;;;;;;;;;5056716;28;20518;-85
2023/04/25 09:16:03;;;;;;;3.90;1.80;;;;;;;;;;5070316;28;20115;-86
2023/04/25 09:18:47;;;;;;;6.30;2.13;;;;;;;;;;5059770;28;20055;-85
2023/04/25 09:21:13;;;;;;;6.82;1.80;;;;;;;;;;5046675;28;20132;-87
2023/04/25 09:23:49;;;;;;;3.42;1.58;;;;;;;;;;5048816;28;20546;-88
2023/04/25 09:26:18;;;;;;;4.25;1.70;;;;;;;;;;5047359;28;20034;-85
2023/04/25 09:28:45;;;;;;;3.75;1.83;;;;;;;;;;5053778;28;20085;-87
2023/04/25 09:31:11;;;;;;;3.35;1.80;;;;;;;;;;5052946;28;20036;-86
2023/04/25 09:33:43;;;;;;;4.00;1.65;;;;;;;;;;5073267;28;20145;-86
2023/04/25 09:36:13;;;;;;;3.47;1.80;;;;;;;;;;5043665;28;20052;-88
2023/04/25 09:39:00;;;;;;;2.72;1.70;;;;;;;;;;5064358;28;20036;-88
2023/04/25 09:41:32;;;;;;;;;;;;;;;;;;5069920;28;20047;-83
2023/04/25 09:44:00;;;;;;;6.18;1.63;;;;;;;;;;5063208;28;19912;-85
2023/04/25 09:46:36;;;;;;;3.45;1.50;;;;;;;;;;5066447;28;20031;-85
2023/04/25 09:49:07;;;;;;;2.30;1.50;;;;;;;;;;5069569;28;20532;-86
2023/04/25 09:51:39;;;;;;;5.28;1.77;;;;;;;;;;5041618;28;20087;-86
2023/04/25 09:54:06;;;;;;;5.25;1.60;;;;;;;;;;5046200;28;20041;-85
2023/04/25 09:56:37;;;;;;;2.55;1.70;;;;;;;;;;5059771;28;20033;-85
2023/04/25 09:59:06;;;;;;;4.93;1.70;;;;;;;;;;5062740;28;20068;-86
2023/04/25 10:01:34;;;;;;;2.95;1.58;;;;;;;;;;5075733;28;20048;-87
2023/04/25 10:04:25;;;;;;;3.03;1.50;;;;;;;;;;5066880;28;20029;-85
2023/04/25 10:06:56;;;;;;;2.15;1.30;;;;;;;;;;5056006;28;20120;-86
2023/04/25 10:09:25;;;;;;;2.50;1.27;;;;;;;;;;5064112;22;20242;-83
2023/04/25 10:11:51;;;;;;;2.65;1.30;;;;;;;;;;5062343;28;20037;-83
2023/04/25 10:14:18;;;;;;;2.75;1.33;;;;;;;;;;5065677;28;20040;-82
2023/04/25 10:16:45;;;;;;;3.28;1.30;;;;;;;;;;5067684;28;20055;-82
2023/04/25 10:19:11;;;;;;;3.17;1.40;;;;;;;;;;5086433;28;20252;-82
2023/04/25 10:22:05;;;;;;;2.50;1.40;;;;;;;;;;5073470;28;20509;-83
2023/04/25 10:24:32;;;;;;;2.40;1.20;;;;;;;;;;5054763;28;20052;-82
2023/04/25 10:26:58;;;;;;;4.15;1.75;;;;;;;;;;5057154;28;20056;-82
2023/04/25 10:29:25;;;;;;;2.53;1.20;;;;;;;;;;5061856;28;20405;-85
2023/04/25 10:31:51;;;;;;;2.40;1.20;;;;;;;;;;5064630;28;20032;-83
2023/04/25 10:34:18;;;;;;;2.97;1.30;;;;;;;;;;5069177;28;20037;-83
2023/04/25 10:36:50;;;;;;;2.25;1.10;;;;;;;;;;5072106;28;20032;-83
2023/04/25 10:39:22;;;;;;;3.85;1.25;;;;;;;;;;5072791;28;20118;-84
2023/04/25 10:41:53;;;;;;;5.30;1.00;;;;;;;;;;5057269;28;20111;-84
2023/04/25 10:44:19;;;;;;;3.25;1.10;;;;;;;;;;5060849;28;20453;-84
2023/04/25 10:46:45;;;;;;;3.95;1.20;;;;;;;;;;5045274;28;20036;-83
2023/04/25 10:49:29;;;;;;;2.50;1.30;;;;;;;;;;5066738;28;20040;-83
2023/04/25 10:52:10;;;;;;;2.67;1.20;;;;;;;;;;5068801;28;20036;-82
2023/04/25 10:54:41;;;;;;;1.80;1.10;;;;;;;;;;5071588;28;20048;-84
2023/04/25 10:57:06;;;;;;;2.50;1.20;;;;;;;;;;5062762;28;20051;-83
2023/04/25 10:59:32;;;;;;;2.17;1.40;;;;;;;;;;5074576;28;20490;-83
2023/04/25 11:01:57;;;;;;;4.10;1.77;;;;;;;;;;5060997;28;20029;-83
2023/04/25 11:04:25;;;;;;;5.15;1.83;;;;;;;;;;5045943;28;20985;-84
2023/04/25 11:07:05;;;;;;;3.65;1.40;;;;;;;;;;5054818;28;20036;-84
2023/04/25 11:09:33;;;;;;;3.25;1.33;;;;;;;;;;5067666;28;20101;-84
2023/04/25 11:12:00;;;;;;;2.58;1.40;;;;;;;;;;5073586;28;20032;-85
2023/04/25 11:14:26;;;;;;;2.53;1.30;;;;;;;;;;5057122;28;20036;-85
2023/04/25 11:16:59;;;;;;;3.58;1.52;;;;;;;;;;5059367;28;20398;-84
2023/04/25 11:19:25;;;;;;;4.93;1.70;;;;;;;;;;5063090;28;20660;-84
2023/04/25 11:21:55;;;;;;;3.28;1.42;;;;;;;;;;5062007;28;20767;-84
2023/04/25 11:24:26;;;;;;;3.60;1.42;;;;;;;;;;5069918;28;20074;-84
2023/04/25 11:26:52;;;;;;;2.60;1.30;;;;;;;;;;5072206;28;20143;-82
2023/04/25 11:29:17;;;;;;;2.88;1.35;;;;;;;;;;5062134;28;20084;-82
2023/04/25 11:31:45;;;;;;;3.10;1.50;;;;;;;;;;5039517;28;20037;-84
2023/04/25 11:34:11;;;;;;;3.42;1.50;;;;;;;;;;5058473;28;20081;-84
2023/04/25 11:36:38;;;;;;;4.18;2.03;;;;;;;;;;5063168;28;20082;-83
2023/04/25 11:39:03;;;;;;;4.40;1.30;;;;;;;;;;5063468;28;20044;-84
2023/04/25 11:41:30;;;;;;;4.05;1.38;;;;;;;;;;5067626;28;20111;-82
2023/04/25 11:43:55;;;;;;;2.88;1.23;;;;;;;;;;5061393;28;20033;-83
2023/04/25 11:46:21;;;;;;;2.53;1.33;;;;;;;;;;5062852;28;20509;-82
2023/04/25 11:48:47;;;;;;;2.45;1.10;;;;;;;;;;5055294;28;20081;-83
2023/04/25 11:51:13;;;;;;;4.88;1.38;;;;;;;;;;5076847;28;20079;-83
2023/04/25 11:53:41;;;;;;;2.05;0.98;;;;;;;;;;5059932;28;20029;-84
2023/04/25 11:56:11;;;;;;;2.30;1.17;;;;;;;;;;5064435;28;20508;-83
2023/04/25 11:59:03;;;;;;;3.28;1.67;;;;;;;;;;5064805;28;20497;-84
2023/04/25 12:01:33;;;;;;;3.13;1.40;;;;;;;;;;5068887;28;20090;-83
2023/04/25 12:04:11;;;;;;;2.88;1.50;;;;;;;;;;5055721;28;20111;-83
2023/04/25 12:06:40;;;;;;;2.67;1.30;;;;;;;;;;5060371;28;20491;-84
2023/04/25 12:09:12;;;;;;;5.25;2.20;;;;;;;;;;5043576;28;20036;-84
2023/04/25 12:11:54;;;;;;;3.70;1.52;;;;;;;;;;5063942;28;20098;-84
2023/04/25 12:14:28;;;;;;;2.95;1.40;;;;;;;;;;5068883;28;20469;-83
2023/04/25 12:16:57;;;;;;;2.70;1.55;;;;;;;;;;5067970;28;20472;-84
2023/04/25 12:19:23;;;;;;;4.68;1.30;;;;;;;;;;5070053;28;20037;-83
2023/04/25 12:21:49;;;;;;;2.05;1.10;;;;;;;;;;5055618;28;20040;-82
2023/04/25 12:24:18;;;;;;;3.67;1.30;;;;;;;;;;5061323;28;20025;-82
2023/04/25 12:27:02;;;;;;;2.63;1.00;;;;;;;;;;5063081;28;20055;-83
2023/04/25 12:29:30;;;;;;;1.83;1.27;;;;;;;;;;5051834;28;20033;-81
2023/04/25 12:31:56;;;;;;;1.98;1.30;;;;;;;;;;5069020;28;20024;-83
2023/04/25 12:34:22;;;;;;;4.00;1.30;;;;;;;;;;5067817;28;20376;-83
2023/04/25 12:36:49;;;;;;;5.32;1.48;;;;;;;;;;5054059;28;20091;-82
2023/04/25 12:39:16;;;;;;;2.03;1.40;;;;;;;;;;5055324;28;20036;-82
2023/04/25 12:41:41;;;;;;;2.85;1.50;;;;;;;;;;5059252;28;20044;-83
2023/04/25 12:44:07;;;;;;;3.97;1.30;;;;;;;;;;5063803;28;20035;-81
2023/04/25 12:46:32;;;;;;;2.90;1.30;;;;;;;;;;5065753;28;20216;-84
2023/04/25 12:48:58;;;;;;;2.70;1.30;;;;;;;;;;5069046;28;20058;-84
2023/04/25 12:51:24;;;;;;;2.65;1.40;;;;;;;;;;5060863;28;20471;-84
2023/04/25 12:53:51;;;;;;;1.30;0.98;;;;;;;;;;5056682;28;20099;-83
2023/04/25 12:56:17;;;;;;;2.17;1.10;;;;;;;;;;5062570;28;20047;-82
2023/04/25 12:58:44;;;;;;;2.53;1.25;;;;;;;;;;5064636;28;20119;-83
2023/04/25 13:01:09;;;;;;;1.75;1.20;;;;;;;;;;5068804;28;20111;-83
2023/04/25 13:03:35;;;;;;;2.00;1.30;;;;;;;;;;5071671;28;20575;-83
2023/04/25 13:06:01;;;;;;;2.17;1.38;;;;;;;;;;5073035;28;20127;-83
2023/04/25 13:08:26;;;;;;;2.13;1.23;;;;;;;;;;5065129;28;20033;-84
2023/04/25 13:10:51;;;;;;;1.98;1.30;;;;;;;;;;5058730;28;20154;-82
2023/04/25 13:13:17;;;;;;;4.22;1.75;;;;;;;;;;5062144;28;20098;-84
2023/04/25 13:15:43;;;;;;;2.08;1.20;;;;;;;;;;5066656;28;20037;-83
2023/04/25 13:18:09;;;;;;;3.33;1.25;;;;;;;;;;5069212;28;20032;-84
2023/04/25 13:20:34;;;;;;;2.97;1.20;;;;;;;;;;5072079;28;20050;-83
2023/04/25 13:23:00;;;;;;;2.95;1.23;;;;;;;;;;5074186;28;20563;-82
2023/04/25 13:25:25;;;;;;;2.53;1.10;;;;;;;;;;5058228;28;20051;-84
2023/04/25 13:27:51;;;;;;;2.95;1.25;;;;;;;;;;5061425;28;20082;-84
2023/04/25 13:30:17;;;;;;;1.67;0.93;;;;;;;;;;5064584;28;20059;-83
2023/04/25 13:32:42;;;;;;;1.00;0.82;;;;;;;;;;5065413;28;20044;-84
2023/04/25 13:35:10;;;;;;;1.35;1.00;;;;;;;;;;5069571;28;20059;-84
2023/04/25 13:37:36;;;;;;;1.48;1.00;;;;;;;;;;5071872;28;20043;-82
2023/04/25 13:40:04;;;;;;;1.85;1.00;;;;;;;;;;5072207;28;20112;-81
2023/04/25 13:42:33;;;;;;;0.93;0.80;;;;;;;;;;5058535;28;20033;-83
2023/04/25 13:44:58;;;;;;;1.20;0.90;;;;;;;;;;5060405;28;20124;-82
2023/04/25 13:47:25;;;;;;;1.27;0.90;;;;;;;;;;5064375;28;20465;-83
2023/04/25 13:49:50;;;;;;;1.00;0.90;;;;;;;;;;5061776;28;20453;-83
2023/04/25 13:52:16;;;;;;;1.33;0.90;;;;;;;;;;5071155;28;20090;-84
2023/04/25 13:54:42;;;;;;;1.60;0.70;;;;;;;;;;5071975;28;20072;-85
2023/04/25 13:57:07;;;;;;;0.75;0.60;;;;;;;;;;5060762;28;20034;-82
2023/04/25 13:59:33;;;;;;;1.17;0.80;;;;;;;;;;5059129;28;20040;-83
2023/04/25 14:01:58;;;;;;;1.42;0.80;;;;;;;;;;5061622;28;20038;-83
2023/04/25 14:04:24;;;;;;;1.05;0.70;;;;;;;;;;5064030;28;20479;-83
2023/04/25 14:06:51;;;;;;;1.00;0.85;;;;;;;;;;5066384;28;20037;-83
2023/04/25 14:09:17;;;;;;;1.75;0.80;;;;;;;;;;5070245;28;20040;-84
2023/04/25 14:11:42;;;;;;;1.20;0.80;;;;;;;;;;5066522;28;20123;-83
2023/04/25 14:14:08;;;;;;;1.35;0.85;;;;;;;;;;5078090;28;20112;-82
2023/04/25 14:16:35;;;;;;;1.60;0.90;;;;;;;;;;5075174;28;20060;-83
2023/04/25 14:19:01;;;;;;;4.22;1.00;;;;;;;;;;5059803;28;20104;-84
2023/04/25 14:21:27;;;;;;;1.63;0.70;;;;;;;;;;5063439;28;20502;-83
2023/04/25 14:23:53;;;;;;;1.08;0.93;;;;;;;;;;5068099;28;20548;-83
2023/04/25 14:26:19;;;;;;;1.67;1.00;;;;;;;;;;5070310;28;20032;-84
2023/04/25 14:28:45;;;;;;;2.42;1.20;;;;;;;;;;5073363;28;20040;-84
2023/04/25 14:31:10;;;;;;;2.17;1.00;;;;;;;;;;5058335;28;20039;-83
2023/04/25 14:33:37;;;;;;;2.00;1.15;;;;;;;;;;5059814;28;20033;-82
2023/04/25 14:36:03;;;;;;;1.20;1.00;;;;;;;;;;5060475;28;20041;-82
2023/04/25 14:38:28;;;;;;;1.50;1.00;;;;;;;;;;5065075;28;20028;-82
2023/04/25 14:40:54;;;;;;;2.33;1.10;;;;;;;;;;5065565;28;20181;-83
2023/04/25 14:43:19;;;;;;;0.95;0.88;;;;;;;;;;5071999;28;20036;-83
2023/04/25 14:45:45;;;;;;;2.55;1.60;;;;;;;;;;5066672;28;20041;-83
2023/04/25 14:48:10;;;;;;;4.00;1.50;;;;;;;;;;5057863;28;20037;-83
2023/04/25 14:50:36;;;;;;;1.00;0.70;;;;;;;;;;5060901;28;20036;-83
2023/04/25 14:53:02;;;;;;;1.38;0.90;;;;;;;;;;5063119;28;20082;-84
2023/04/25 14:55:27;;;;;;;1.20;0.85;;;;;;;;;;5065459;28;20391;-82